Latest Coastal Weather Observations for Proserpine

IDQ60701

Issued at 12:42 pm EST Thursday 11 February 2016 (issued every 10 minutes, with the page automatically refreshed every 10 minutes)

About coastal observations | Map of coastal stations | Coastal observations for QLD | Marine services | Other Formats
Station Details ID: 033247 Name: PROSERPINE AIRPORT Lat: -20.49 Lon: 148.56 Height: 19.7 m
Data from the previous 72 hours. | See also: Recent months at Proserpine
Date/Time
EST
Temp

°C
Wind Pressure Rain
since 9am
mm
Weather Cloud Vis
km
Sea
Height
m
Swell
Dir
 
Speed
knots
Gust
knots
hPa Trend Height
m
Period
s
Dir
11/12:30pm 29.0 SSE 11 16 1008.9 - 0.2 - Partly cloudy 10 - - - -
11/12:00pm 28.3 SE 12 16 1009.3 - 0.2 - Mostly cloudy 10 - - - -
11/11:30am 27.8 SE 14 19 1009.7 - 0.2 - Partly cloudy 10 - - - -
11/11:00am 28.7 SE 12 18 1009.8 - 0.2 - Partly cloudy 10 - - - -
11/10:30am 26.9 SSE 10 15 1010.0 - 0.2 - Partly cloudy 10 - - - -
11/10:00am 25.1 S 7 11 1010.3 - 0.2 - Partly cloudy 10 - - - -
11/09:30am 24.1 SSW 5 7 1010.4 - 0.2 - Partly cloudy 10 - - - -
11/09:25am 23.8 S 5 8 1010.4 - 0.2 - Partly cloudy 10 - - - -
11/09:00am 23.3 SSE 13 18 1010.6 - 0.2 Rain Cloudy 5 - - - -
11/08:57am 23.2 SSE 14 20 1010.6 - 0.2 - Partly cloudy 6 - - - -
11/08:30am 24.1 SSE 8 12 1010.2 - 0.0 - Partly cloudy 10 - - - -
11/08:00am 24.1 SSE 11 18 1009.8 - 0.0 - Partly cloudy 10 - - - -
11/07:30am 24.1 SSE 9 15 1009.5 - 0.0 - Partly cloudy 10 - - - -
11/07:00am 23.1 S 9 17 1009.3 - 0.0 - Partly cloudy 10 - - - -
11/06:30am 23.2 SSE 7 9 1008.9 - 0.0 - Partly cloudy 10 - - - -
11/06:00am 23.1 SSE 8 11 1008.7 - 0.0 - Cloudy 10 - - - -
11/05:30am 22.9 S 7 11 1008.4 - 0.0 - Partly cloudy 10 - - - -
11/05:00am 23.1 SSE 12 16 1008.2 - 0.0 - Partly cloudy 9 - - - -
11/04:30am 23.4 SSE 9 12 1007.9 - 0.0 - Partly cloudy 10 - - - -
11/04:00am 23.4 SSE 7 12 1007.7 - 0.0 - Partly cloudy 10 - - - -
11/03:30am 22.6 SSW 5 6 1007.6 - 0.0 - - 10 - - - -
11/03:00am 22.6 S 5 6 1007.6 - 0.0 - - 10 - - - -
11/02:30am 22.6 SW 6 7 1007.8 - 0.0 - - 10 - - - -
11/02:00am 22.5 SW 5 5 1007.9 - 0.0 - - 10 - - - -
11/01:30am 22.8 S 3 4 1008.2 - 0.0 - Partly cloudy 10 - - - -
11/01:00am 22.7 SSW 5 5 1008.1 - 0.0 - - 10 - - - -
11/12:30am 22.9 SSW 5 7 1008.2 - 0.0 - - 10 - - - -
11/12:00am 23.1 SSW 5 7 1008.7 - 0.0 - - 10 - - - -
 
Date/Time
EST
Temp

°C
Wind Pressure Rain
since 9am
mm
Weather Cloud Vis
km
Sea
Height
m
Swell
Dir
 
Speed
knots
Gust
knots
hPa Trend Height
m
Period
s
Dir
10/11:30pm 23.2 SSW 5 6 1009.1 - 0.0 - - 10 - - - -
10/11:00pm 23.7 SSW 5 7 1009.7 - 0.0 - Partly cloudy 10 - - - -
10/10:30pm 23.5 SSW 6 7 1009.9 - 0.0 - Partly cloudy 10 - - - -
10/10:00pm 23.8 SSW 6 7 1010.0 - 0.0 - - 10 - - - -
10/09:30pm 24.0 SSW 5 7 1009.7 - 0.0 - - 10 - - - -
10/09:00pm 24.6 S 5 7 1009.6 - 0.0 - - 10 - - - -
10/08:30pm 25.4 S 5 7 1009.5 - 0.0 - - 10 - - - -
10/08:00pm 25.7 SSE 7 11 1009.4 - 0.0 - - 10 - - - -
10/07:30pm 26.2 SE 11 15 1008.9 - 0.0 - - 10 - - - -
10/07:00pm 26.3 ESE 11 16 1008.7 - 0.0 - - 10 - - - -
10/06:30pm 26.6 ESE 11 17 1008.2 - 0.0 - - 10 - - - -
10/06:00pm 27.2 ESE 13 19 1007.7 - 0.0 - Mostly clear 10 - - - -
10/05:30pm 27.3 ESE 15 20 1007.5 - 0.0 - Partly cloudy 10 - - - -
10/05:00pm 27.6 E 15 21 1007.3 - 0.0 - - 10 - - - -
10/04:30pm 28.8 ESE 15 20 1006.9 - 0.0 - - 10 - - - -
10/04:00pm 29.2 ESE 16 21 1006.9 - 0.0 - Partly cloudy 10 - - - -
10/03:30pm 29.4 ESE 14 20 1007.1 - 0.0 - - 10 - - - -
10/03:00pm 29.7 ESE 15 20 1007.3 - 0.0 - - 10 - - - -
10/02:30pm 29.2 ESE 15 22 1007.6 - 0.0 - - 10 - - - -
10/02:00pm 29.7 ESE 13 20 1007.9 - 0.0 - - 10 - - - -
10/01:30pm 30.0 ESE 16 21 1008.3 - 0.0 - Partly cloudy 10 - - - -
10/01:00pm 29.9 ESE 15 20 1008.6 - 0.0 - Partly cloudy 10 - - - -
10/12:30pm 28.9 ESE 14 19 1008.9 - 0.0 - Partly cloudy 10 - - - -
10/12:00pm 30.0 ESE 15 21 1009.3 - 0.0 - Partly cloudy 10 - - - -
10/11:30am 29.8 SE 15 21 1009.5 - 0.0 - - 10 - - - -
10/11:00am 29.5 SE 15 22 1009.7 - 0.0 - Partly cloudy 10 - - - -
10/10:30am 29.4 SE 13 21 1009.8 - 0.0 - Partly cloudy 10 - - - -
10/10:00am 28.7 SE 15 20 1009.8 - 0.0 - Partly cloudy 10 - - - -
10/09:30am 28.2 SSE 12 18 1009.8 - 0.0 - - 10 - - - -
10/09:00am 27.6 SSE 13 17 1009.9 - 0.8 - - 10 - - - -
10/08:30am 26.7 SSE 13 19 1009.8 - 0.8 - - 10 - - - -
10/08:00am 26.0 SSE 11 14 1009.5 - 0.8 - - 10 - - - -
10/07:30am 25.2 SSE 9 12 1009.3 - 0.8 - - 10 - - - -
10/07:00am 23.9 S 9 13 1009.0 - 0.8 - - 10 - - - -
10/06:30am 23.8 S 9 13 1008.8 - 0.8 - Partly cloudy 10 - - - -
10/06:00am 23.7 SSE 9 11 1008.5 - 0.8 - Mostly cloudy 10 - - - -
10/05:30am 23.9 SSE 8 10 1008.1 - 0.8 - Partly cloudy 10 - - - -
10/05:00am 23.8 S 10 13 1007.9 - 0.8 - Partly cloudy 10 - - - -
10/04:30am 23.7 S 10 14 1007.6 - 0.8 - Partly cloudy 10 - - - -
10/04:00am 23.6 S 10 14 1007.4 - 0.8 - Partly cloudy 10 - - - -
10/03:30am 23.2 S 6 9 1007.4 - 0.8 - Partly cloudy 10 - - - -
10/03:00am 23.0 SSW 6 9 1007.8 - 0.8 - Cloudy 10 - - - -
10/02:30am 22.8 SSW 5 6 1007.9 - 0.8 - Partly cloudy 10 - - - -
10/02:00am 22.7 S 7 10 1007.9 - 0.8 - - 10 - - - -
10/01:30am 22.7 S 7 9 1008.3 - 0.8 - Partly cloudy 10 - - - -
10/01:00am 22.8 S 7 9 1008.9 - 0.8 - Partly cloudy 10 - - - -
10/12:30am 22.9 S 7 9 1009.4 - 0.8 - Partly cloudy 10 - - - -
10/12:00am 22.9 S 7 9 1009.7 - 0.8 - Mostly clear 10 - - - -
 
Date/Time
EST
Temp

°C
Wind Pressure Rain
since 9am
mm
Weather Cloud Vis
km
Sea
Height
m
Swell
Dir
 
Speed
knots
Gust
knots
hPa Trend Height
m
Period
s
Dir
09/11:30pm 22.9 S 7 9 1010.0 - 0.8 - Partly cloudy 10 - - - -
09/11:00pm 22.9 S 9 12 1010.5 - 0.8 - Partly cloudy 10 - - - -
09/10:30pm 22.9 S 8 11 1010.6 - 0.8 - Partly cloudy 10 - - - -
09/10:00pm 23.0 S 8 11 1011.0 - 0.6 - Partly cloudy 10 - - - -
09/09:54pm 23.0 SSE 9 11 1011.0 - 0.6 - Partly cloudy 10 - - - -
09/09:35pm 23.2 SE 17 28 1011.2 - 0.4 - Partly cloudy 6 - - - -
09/09:30pm 23.3 SSE 16 28 1011.2 - 0.0 - Partly cloudy 10 - - - -
09/09:29pm 23.4 SSE 15 28 1011.2 - 0.0 - Partly cloudy 10 - - - -
09/09:00pm 24.4 SSE 12 18 1010.7 - 0.0 - Cloudy 10 - - - -
09/08:30pm 24.7 S 12 18 1010.6 - 0.0 - Partly cloudy 10 - - - -
09/08:00pm 25.4 SSE 10 13 1010.4 - 0.0 - Partly cloudy 10 - - - -
09/07:30pm 26.5 SSE 14 23 1010.0 - 0.0 - Partly cloudy 10 - - - -
09/07:00pm 27.0 SE 14 20 1009.7 - 0.0 - Partly cloudy 10 - - - -
09/06:30pm 27.3 ESE 14 22 1009.6 - 0.0 - Partly cloudy 10 - - - -
09/06:00pm 28.2 ESE 17 23 1009.1 - 0.0 - Mostly cloudy 10 - - - -
09/05:30pm 28.2 ESE 15 24 1008.9 - 0.0 - Partly cloudy 10 - - - -
09/05:00pm 28.1 ESE 16 23 1008.4 - 0.0 - Partly cloudy 10 - - - -
09/04:30pm 28.3 ESE 17 24 1008.4 - 0.0 - Partly cloudy 10 - - - -
09/04:00pm 28.4 ESE 19 25 1008.3 - 0.0 - - 10 - - - -
09/03:30pm 29.3 ESE 17 24 1008.2 - 0.0 - Partly cloudy 10 - - - -
09/03:00pm 29.0 SE 18 25 1008.4 - 0.0 - Partly cloudy 10 - - - -
09/02:38pm 30.1 ESE 18 28 1008.5 - 0.0 - - 10 - - - -
09/02:30pm 29.5 ESE 17 24 1008.6 - 0.0 - - 10 - - - -
09/02:00pm 29.9 ESE 16 25 1008.6 - 0.0 - - 10 - - - -
09/01:30pm 30.2 ESE 16 22 1008.9 - 0.0 - - 10 - - - -
09/01:00pm 30.8 SE 15 22 1009.2 - 0.0 - Partly cloudy 10 - - - -
09/12:30pm 30.2 SE 17 21 1009.7 - 0.0 - Partly cloudy 10 - - - -
09/12:00pm 30.7 SE 17 23 1010.0 - 0.0 - - 10 - - - -
09/11:30am 29.7 SE 17 23 1010.2 - 0.0 - - 10 - - - -
09/11:00am 29.4 SE 19 25 1010.4 - 0.0 - Partly cloudy 10 - - - -
09/10:30am 29.7 SE 17 25 1010.6 - 0.0 - - 10 - - - -
09/10:00am 29.1 SE 18 25 1010.8 - 0.0 - Partly cloudy 10 - - - -
09/09:30am 29.0 SE 16 23 1010.9 - 0.0 - Partly cloudy 10 - - - -
09/09:00am 28.6 SE 14 21 1010.9 - 7.4 - - 10 - - - -
09/08:30am 27.4 SSE 13 19 1010.7 - 7.4 - - 10 - - - -
09/08:00am 26.7 SSE 13 17 1010.6 - 7.4 - - 10 - - - -
09/07:30am 25.8 S 10 16 1010.6 - 7.4 - - 10 - - - -
09/07:00am 24.8 SSE 9 13 1010.3 - 7.4 - Partly cloudy 10 - - - -
09/06:30am 24.6 S 9 12 1010.1 - 7.4 - Partly cloudy 10 - - - -
09/06:00am 24.6 S 8 11 1009.8 - 7.4 - Mostly cloudy 10 - - - -
09/05:30am 24.6 SSE 9 13 1009.4 - 7.4 - Cloudy 10 - - - -
09/05:00am 24.6 SSE 11 16 1009.0 - 7.4 - Cloudy 10 - - - -
09/04:30am 24.3 SSE 9 13 1008.8 - 7.4 - Partly cloudy 10 - - - -
09/04:00am 24.4 SSE 9 12 1008.6 - 7.4 - - 10 - - - -
09/03:30am 24.5 SSE 10 13 1008.5 - 7.4 - - 10 - - - -
09/03:00am 24.7 SSE 9 12 1008.5 - 7.4 - - 10 - - - -
09/02:30am 24.9 SSE 9 13 1008.7 - 7.4 - Partly cloudy 10 - - - -
09/02:00am 25.0 SSE 9 14 1008.8 - 7.4 - Partly cloudy 10 - - - -
09/01:30am 25.1 SE 14 19 1009.3 - 7.4 - Partly cloudy 10 - - - -
09/01:00am 25.3 SSE 11 14 1009.5 - 7.4 - Partly cloudy 10 - - - -
09/12:30am 25.1 SSE 12 16 1009.7 - 7.4 - Partly cloudy 10 - - - -
09/12:00am 24.8 SSE 10 13 1010.2 - 7.4 Rain Cloudy 9 - - - -
 
Date/Time
EST
Temp

°C
Wind Pressure Rain
since 9am
mm
Weather Cloud Vis
km
Sea
Height
m
Swell
Dir
 
Speed
knots
Gust
knots
hPa Trend Height
m
Period
s
Dir
08/11:46pm 24.8 SSE 8 11 1010.2 - 7.2 - Partly cloudy 7 - - - -
08/11:40pm 24.8 SSE 9 12 1010.3 - 7.2 - Partly cloudy 7 - - - -
08/11:30pm 24.7 SE 7 11 1010.6 - 6.8 - Partly cloudy 5 - - - -
08/11:19pm 24.9 SE 8 11 1010.8 - 6.0 - Partly cloudy 5 - - - -
08/11:00pm 25.3 SSE 8 11 1011.0 - 4.8 - Partly cloudy 10 - - - -
08/10:34pm 25.1 E 8 10 1011.0 - 4.8 - Partly cloudy 10 - - - -
08/10:30pm 25.1 ESE 7 10 1010.9 - 4.8 - Partly cloudy 10 - - - -
08/10:26pm 25.2 SSE 7 10 1010.8 - 4.6 - Partly cloudy 10 - - - -
08/10:11pm 25.0 SE 10 15 1010.6 - 4.4 - Partly cloudy 6 - - - -
08/10:08pm 25.0 SE 10 13 1010.6 - 4.4 - Partly cloudy 7 - - - -
08/10:00pm 25.1 SE 10 13 1010.6 - 4.0 - Partly cloudy 7 - - - -
08/09:52pm 25.0 SE 9 13 1010.5 - 3.8 - Partly cloudy 6 - - - -
08/09:49pm 25.0 SE 8 11 1010.4 - 3.8 - Partly cloudy 8 - - - -
08/09:31pm 25.1 SE 13 19 1010.3 - 3.4 - Partly cloudy 9 - - - -
08/09:30pm 25.1 SE 14 19 1010.3 - 3.2 - Partly cloudy 10 - - - -
08/09:02pm 24.9 SE 11 16 1010.3 - 2.2 - Partly cloudy 4 - - - -
08/09:00pm 24.9 SE 11 16 1010.3 - 2.2 Rain Cloudy 4 - - - -
08/08:54pm 25.1 SE 9 14 1010.2 - 1.2 - Partly cloudy 6 - - - -
08/08:30pm 25.2 SE 11 15 1009.9 - 0.8 - Partly cloudy 10 - - - -
08/08:16pm 25.1 SE 12 16 1009.9 - 0.8 - Partly cloudy 10 - - - -
08/08:06pm 25.1 SE 10 16 1009.9 - 0.8 - Partly cloudy 6 - - - -
08/08:00pm 25.2 ESE 9 11 1009.9 - 0.8 - Partly cloudy 10 - - - -
08/07:30pm 25.2 SE 14 19 1009.8 - 0.8 - Partly cloudy 10 - - - -
08/07:08pm 25.3 SE 17 22 1009.8 - 0.8 - Partly cloudy 8 - - - -
08/07:07pm 25.3 SE 16 22 1009.8 - 0.6 - Partly cloudy 8 - - - -
08/07:00pm 25.4 SE 14 20 1009.8 - 0.6 - Partly cloudy 7 - - - -
08/06:48pm 25.5 ESE 15 24 1009.6 - 0.4 - Partly cloudy 6 - - - -
08/06:30pm 25.8 ESE 13 21 1009.1 - 0.2 - Partly cloudy 10 - - - -
08/06:05pm 26.4 SE 15 25 1009.0 - 0.2 - Partly cloudy 10 - - - -
08/06:00pm 27.4 SE 14 21 1009.0 - 0.2 - Cloudy 10 - - - -
08/05:47pm 27.0 SE 14 21 1009.0 - 0.2 - Partly cloudy 10 - - - -
08/05:30pm 26.7 ESE 16 22 1008.9 - 0.2 - Partly cloudy 10 - - - -
08/05:10pm 27.6 ESE 15 24 1008.5 - 0.2 - Partly cloudy 10 - - - -
08/05:00pm 27.9 SE 17 25 1008.3 - 0.2 - Partly cloudy 10 - - - -
08/04:30pm 27.6 ESE 19 26 1007.9 - 0.2 - Partly cloudy 10 - - - -
08/04:14pm 28.4 ESE 18 27 1007.9 - 0.2 - Partly cloudy 10 - - - -
08/04:00pm 28.9 ESE 17 24 1007.8 - 0.2 - Partly cloudy 10 - - - -
08/03:55pm 28.8 ESE 17 24 1007.8 - 0.2 - Partly cloudy 10 - - - -
08/03:30pm 28.7 ESE 18 27 1007.7 - 0.2 - Partly cloudy 10 - - - -
08/03:25pm 28.6 ESE 17 27 1007.6 - 0.2 - Partly cloudy 10 - - - -
08/03:00pm 28.3 ESE 17 24 1007.8 - 0.2 - Cloudy 10 - - - -
08/02:30pm 29.2 ESE 17 24 1007.9 - 0.2 - Partly cloudy 10 - - - -
08/02:00pm 29.2 ESE 18 24 1008.2 - 0.2 - Partly cloudy 10 - - - -
08/01:30pm 29.1 ESE 17 24 1008.5 - 0.2 - Partly cloudy 10 - - - -
08/01:00pm 29.5 ESE 15 21 1008.9 - 0.0 - Partly cloudy 10 - - - -

Other Formats:

Comma delimited format used in spreadsheet applications
http://www.bom.gov.au/fwo/IDQ60701/IDQ60701.94365.axf

JavaScript Object Notation format (JSON) in row-major order
http://www.bom.gov.au/fwo/IDQ60701/IDQ60701.94365.json